Historyczne dane pomiarowe

Dodano dane terminowe – wersja testowa.

Dane z okresu 1951-2019

Wersja bazy: 1.34 [2019-03-16, lista zmian], aktualizacja planowana na 2019-04-15

Dane meteo z obszaru Polski uzyskane na podstawie danych udostępnionych przez Instytut Meteorologii i Gospodarki Wodnej – Państwowy Instytut Badawczy.

 

Wybierz Datę:    

       

TemperaturaWilgotnośćWiatrCiśnienieOpadyŚniegCzas trwania zjawisk
 Stacja t tx tn tng RH VA  wxwx mslp ppp RRR   cm mm wxwxwxwxwxwxwx
1987-08-14 15.1 21.5 10.3 8.3 71.3- 5.3 1.3---- 3.2------------
1987-08-13 11.5 15.4 7.0 5.9 88.8- 5.3 1.7---- 0.0------------
1987-08-12 12.2 17.5 8.9 7.8 77.0- 5.0 2.0---- 0.0------------
1987-08-11 13.0 17.5 10.4 10.8 82.0- 6.0 1.7---- 1.8------------
1987-08-10 15.6 19.8 13.1 10.8 87.5- 7.0 1.0---- 0.0------------
1987-08-09 17.8 22.8 11.6 8.4 71.0- 6.0 0.3---- 1.7------------
1987-08-08 14.0 19.8 10.5 10.4 70.8- 4.3 0.7---- 0.0------------
1987-08-07 12.8 19.2 8.3 7.0 77.3- 4.7 1.0---- 1.3------------
1987-08-06 12.3 16.5 8.0 6.4 83.8- 5.7 1.3---- 2.8------------
1987-08-05 13.0 18.5 6.7 4.9 71.5- 3.0 1.0---- 0.0------------
1987-08-04 14.6 19.0 8.9 5.9 80.0- 5.3 1.7---- 2.2------------
1987-08-03 14.6 18.4 11.6 10.3 71.0- 4.3 1.0---- 1.2------------
1987-08-02 14.6 19.0 12.1 10.4 74.0- 4.0 1.3---- 1.4------------
1987-08-01 16.6 22.0 9.5 11.3 69.8- 5.7 1.7---- 2.3------------
1987-07-31 15.6 19.8 13.3 10.6 87.3- 7.3 1.0---- 2.0------------
1987-07-30 17.4 23.1 11.4 9.2 70.3- 1.0 0.7---- 0.0------------
1987-07-29 14.6 18.7 10.3 8.8 76.0- 5.3 1.0---- 1.2------------
1987-07-28 14.4 18.4 10.9 10.3 82.3- 6.0 1.3---- 1.1------------
1987-07-27 11.4 16.8 8.2 6.9 78.0- 5.0 2.0---- 1.3------------
1987-07-26 13.2 19.2 10.8 11.5 89.5- 7.0 0.7---- 3.6------------
1987-07-25 18.3 23.2 15.4 14.5 75.3- 4.0 1.0---- 0.0------------
1987-07-24 18.7 25.9 13.9 12.9 75.3- 5.3 1.0---- 1.5------------
1987-07-23 20.8 27.2 15.2 13.4 65.0- 0.3 1.0---- 0.0------------
1987-07-22 20.4 26.4 11.9 14.4 78.5- 5.7 0.7---- 0.0------------
1987-07-21 19.7 25.0 11.9 9.8 70.8- 1.3 1.0---- 2.3------------
1987-07-20 20.0 26.3 17.3 16.9 85.0- 3.0 2.3---- 0.0------------
1987-07-19 19.5 23.4 12.3 14.4 86.5- 6.3 1.7---- 0.0------------
1987-07-18 20.6 24.5 16.8 19.5 88.5- 6.0 1.3---- 0.0------------
1987-07-17 20.0 26.5 13.9 12.3 80.0- 5.7 1.7---- 32.3------------
1987-07-16 19.7 26.1 10.3 7.5 62.0- 2.7 1.0---- 0.0------------
1987-07-15 16.6 23.0 8.3 5.6 64.3- 0.7 1.0---- 0.0------------
1987-07-14 15.7 19.2 10.4 8.3 76.0- 4.3 1.3---- 0.0------------
1987-07-13 17.8 22.5 11.5 9.9 71.0- 2.0 2.0---- 0.0------------
1987-07-12 20.8 28.6 14.9 14.4 75.8- 4.3 1.7---- 4.9------------
1987-07-11 16.7 22.3 8.4 6.7 65.0- 3.7 1.3---- 1.9------------
1987-07-10 15.0 18.9 10.4 9.3 65.8- 2.0 2.3---- 0.0------------
1987-07-09 18.8 24.8 14.5 12.6 84.0- 8.0 1.7---- 9.2------------
1987-07-08 21.9 29.4 11.8 7.7 59.3- 0.7 1.0---- 0.0------------
1987-07-07 19.7 26.6 9.0 4.9 56.5- 0.3 0.3---- 0.0------------
1987-07-06 17.9 23.2 7.5 5.2 55.0- 0.3 0.7---- 0.0------------
1987-07-05 17.6 21.6 12.3 10.8 66.0- 2.0 2.0---- 0.0------------
1987-07-04 18.2 22.0 11.4 8.3 65.5- 7.0 0.7---- 0.0------------
1987-07-03 19.6 22.5 14.4 13.4 64.5- 5.0 1.0---- 0.0------------
1987-07-02 20.1 28.8 16.3 17.4 57.3- 7.7 2.3---- 0.0------------
1987-07-01 26.4 31.4 17.2 14.4 74.5- 1.0 1.0---- 0.0------------
1987-06-30 24.1 28.5 17.2 15.5 73.8- 4.0 1.0---- 0.0------------
1987-06-29 18.6 23.2 8.4 5.9 68.0- 2.0 1.0---- 0.0------------
1987-06-28 17.6 24.0 12.6 10.3 77.3- 6.7 1.7---- 0.0------------
1987-06-27 17.6 22.0 13.4 11.7 78.0- 5.7 1.3---- 0.6------------
1987-06-26 15.9 23.0 8.0 5.9 63.5- 3.3 1.0---- 0.6------------
1987-06-25 13.3 20.8 11.3 9.8 83.8- 6.7 1.3---- 1.2------------
1987-06-24 16.4 20.8 11.3 8.8 64.0- 4.3 1.3---- 7.0------------
1987-06-23 16.6 22.6 11.9 8.6 79.5- 4.0 1.7---- 0.0------------
1987-06-22 17.2 24.2 8.9 7.2 77.0- 4.0 0.7---- 1.6------------
1987-06-21 17.6 23.0 9.9 6.6 66.8- 1.7 0.0---- 0.0------------
1987-06-20 15.6 22.2 6.0 3.1 59.0- 1.3 1.7---- 0.0------------
1987-06-19 12.0 16.5 6.7 5.7 76.3- 5.0 1.0---- 0.4------------
1987-06-18 11.2 17.5 3.4 1.5 71.8- 5.3 1.3---- 1.7------------
1987-06-17 12.2 15.9 8.3 7.2 70.3- 6.3 1.0---- 0.6------------
1987-06-16 16.6 26.0 10.9 12.2 78.8- 4.3 2.0---- 0.8------------
478.4 ms

 

Źródłem pochodzenia danych jest Instytut Meteorologii i Gospodarki Wodnej – Państwowy Instytut Badawczy. Dane Instytutu Meteorologii i Gospodarki Wodnej – Państwowego Instytutu Badawczego zostały przetworzone.

Dane źródłowe można odnaleźć na stronie https://dane.imgw.pl